Goodyears Corners, New York
Current Conditions -  °F | °C
As of 5:56 AM on Sunday 21 Dec 2014 (Local Time) from KITH Reporting Station
Overcast Overcast  
Wind Chill: -3°   Ceiling: 2200
Heat Index: -3°   Visibility: 10mi
Dew Point: -6°   Wind: 0mph
Humidity: 81%   Direction: NA
Pressure: 30.26"   Gusts: NA
Location:  42.6734°N, 76.6263°W
Report Text: KITH 211056Z AUTO 00000KT 10SM OVC022 M03/M06 A3026 RMK AO2 T10271055 SLP264
Loading
Personal Weather Stations






























Interactive Weather Map New forecast layout! Learn more

10-Day Weather Forecast

Advertisements
Track Severe Weather on mobile